createdAt,value
2022-12-24T00:01:42.055Z,97547.91
2022-12-24T00:04:11.177Z,97550.66
2022-12-24T00:06:40.270Z,97564.88
2022-12-24T00:09:10.417Z,97563.59
2022-12-24T00:11:39.470Z,97583.88
2022-12-24T00:14:08.568Z,97564.44
2022-12-24T00:16:37.696Z,97561.25
2022-12-24T00:19:08.136Z,97567.53
2022-12-24T00:21:37.216Z,97589.84
2022-12-24T00:24:06.977Z,97575.94
2022-12-24T00:26:36.400Z,97591.44
2022-12-24T00:29:06.676Z,97602.59
2022-12-24T00:31:35.850Z,97590.28
2022-12-24T00:34:04.879Z,97605.81
2022-12-24T00:36:35.460Z,97611.34
2022-12-24T00:39:04.753Z,97608.25
2022-12-24T00:41:33.856Z,97609.03
2022-12-24T00:44:06.065Z,97601.81
2022-12-24T00:46:36.110Z,97599.25
2022-12-24T00:49:06.097Z,97599.25
2022-12-24T00:51:37.422Z,97607.19
2022-12-24T00:54:07.615Z,97601.56
2022-12-24T00:56:36.725Z,97609.44
2022-12-24T00:59:05.783Z,97602.25
2022-12-24T01:01:35.909Z,97612.50
2022-12-24T01:04:19.118Z,97613.16
2022-12-24T01:06:49.553Z,97611.97
2022-12-24T01:09:18.662Z,97624.28
2022-12-24T01:11:47.707Z,97645.28
2022-12-24T01:14:16.727Z,97667.47
2022-12-24T01:16:45.861Z,97688.19
2022-12-24T01:19:14.918Z,97654.56
2022-12-24T01:21:43.981Z,97691.69
2022-12-24T01:24:17.262Z,97671.84
2022-12-24T01:26:46.306Z,97648.78
2022-12-24T01:29:15.385Z,97651.53
2022-12-24T01:31:44.470Z,97650.25
2022-12-24T01:34:13.564Z,97649.47
2022-12-24T01:36:42.583Z,97654.19
2022-12-24T01:39:11.713Z,97642.25
2022-12-24T01:41:59.478Z,97654.63
2022-12-24T01:44:36.632Z,97652.19
2022-12-24T01:47:13.435Z,97650.91
2022-12-24T01:49:48.008Z,97660.13
2022-12-24T01:52:22.057Z,97669.19
2022-12-24T01:54:56.473Z,97670.25
2022-12-24T01:57:31.689Z,97675.59
2022-12-24T02:00:07.688Z,97671.38
2022-12-24T02:02:38.727Z,97664.19
2022-12-24T02:05:13.904Z,97661.75
2022-12-24T02:07:44.287Z,97666.47
2022-12-24T02:10:16.284Z,97670.16
2022-12-24T02:12:48.529Z,97668.16
2022-12-24T02:15:20.270Z,97673.09
2022-12-24T02:18:02.049Z,97682.06
2022-12-24T02:20:52.860Z,97688.09
2022-12-24T02:23:54.521Z,97675.75
2022-12-24T02:26:43.153Z,97672.03
2022-12-24T02:29:39.529Z,97654.44
2022-12-24T02:32:16.089Z,97667.19
2022-12-24T02:34:50.572Z,97673.97
2022-12-24T02:37:24.498Z,97682.28
2022-12-24T02:39:58.772Z,97683.69
2022-12-24T02:42:34.190Z,97667.31
2022-12-24T02:45:07.056Z,97664.78
2022-12-24T02:47:39.206Z,97658.44
2022-12-24T02:50:12.102Z,97648.78
2022-12-24T02:52:43.986Z,97652.25
2022-12-24T02:55:17.016Z,97667.69
2022-12-24T02:58:26.382Z,97654.28
2022-12-24T03:01:18.383Z,97675.56
2022-12-24T03:04:05.409Z,97684.66
2022-12-24T03:06:44.347Z,97679.88
2022-12-24T03:09:21.099Z,97689.28
2022-12-24T03:12:00.389Z,97684.53
2022-12-24T03:14:30.718Z,97693.94
2022-12-24T03:17:00.668Z,97700.28
2022-12-24T03:19:32.709Z,97706.06
2022-12-24T03:22:05.768Z,97690.06
2022-12-24T03:24:34.896Z,97705.72
2022-12-24T03:27:05.719Z,97697.19
2022-12-24T03:29:35.061Z,97692.91
2022-12-24T03:32:05.978Z,97694.22
2022-12-24T03:34:36.510Z,97688.63
2022-12-24T03:37:05.766Z,97693.69
2022-12-24T03:39:34.992Z,97691.69
2022-12-24T03:42:04.235Z,97699.28
2022-12-24T03:44:33.240Z,97703.44
2022-12-24T03:47:02.397Z,97714.00
2022-12-24T03:49:31.867Z,97709.63
2022-12-24T03:52:02.682Z,97711.38
2022-12-24T03:54:32.017Z,97713.63
2022-12-24T03:57:01.056Z,97716.38
2022-12-24T03:59:30.167Z,97721.94
2022-12-24T04:01:59.502Z,97713.94
2022-12-24T04:04:28.718Z,97727.81
2022-12-24T04:06:57.770Z,97745.31
2022-12-24T04:09:28.243Z,97739.75
2022-12-24T04:11:57.342Z,97761.13
2022-12-24T04:14:26.589Z,97760.66
2022-12-24T04:16:55.686Z,97761.00
2022-12-24T04:19:24.788Z,97754.59
2022-12-24T04:21:53.840Z,97759.09
2022-12-24T04:24:23.020Z,97769.72
2022-12-24T04:26:53.455Z,97767.31
2022-12-24T04:29:22.736Z,97774.03
2022-12-24T04:31:51.899Z,97762.91
2022-12-24T04:34:20.988Z,97762.56
2022-12-24T04:36:50.027Z,97755.84
2022-12-24T04:39:19.122Z,97758.75
2022-12-24T04:41:48.126Z,97751.16
2022-12-24T04:44:18.577Z,97772.25
2022-12-24T04:46:47.639Z,97762.56
2022-12-24T04:49:16.756Z,97771.84
2022-12-24T04:51:45.754Z,97759.72
2022-12-24T04:54:14.836Z,97761.81
2022-12-24T04:56:43.849Z,97764.88
2022-12-24T04:59:12.930Z,97804.66
2022-12-24T05:01:43.508Z,97799.69
2022-12-24T05:04:12.680Z,97808.63
2022-12-24T05:06:41.773Z,97799.09
2022-12-24T05:09:10.749Z,97799.75
2022-12-24T05:11:39.857Z,97808.63
2022-12-24T05:14:08.857Z,97814.72
2022-12-24T05:16:38.810Z,97825.63
2022-12-24T05:19:09.266Z,97830.63
2022-12-24T05:21:38.378Z,97846.28
2022-12-24T05:24:25.959Z,97847.66
2022-12-24T05:26:58.490Z,97845.00
2022-12-24T05:29:27.614Z,97844.41
2022-12-24T05:31:56.567Z,97849.88
2022-12-24T05:34:27.047Z,97838.56
2022-12-24T05:36:56.226Z,97843.16
2022-12-24T05:39:25.420Z,97818.69
2022-12-24T05:41:54.448Z,97834.69
2022-12-24T05:44:23.552Z,97843.53
2022-12-24T05:46:52.598Z,97837.03
2022-12-24T05:49:21.672Z,97830.78
2022-12-24T05:51:52.162Z,97827.94
2022-12-24T05:54:21.319Z,97844.09
2022-12-24T05:56:50.439Z,97833.94
2022-12-24T05:59:19.437Z,97838.13
2022-12-24T06:01:48.713Z,97842.59
2022-12-24T06:04:21.668Z,97844.75
2022-12-24T06:06:55.374Z,97859.19
2022-12-24T06:09:24.431Z,97863.56
2022-12-24T06:11:53.509Z,97851.75
2022-12-24T06:14:22.548Z,97859.19
2022-12-24T06:16:51.583Z,97849.69
2022-12-24T06:19:20.837Z,97869.66
2022-12-24T06:21:50.065Z,97871.88
2022-12-24T06:24:21.497Z,97866.03
2022-12-24T06:26:50.536Z,97870.72
2022-12-24T06:29:19.600Z,97873.81
2022-12-24T06:31:48.716Z,97876.25
2022-12-24T06:34:17.833Z,97893.59
2022-12-24T06:36:47.031Z,97908.00
2022-12-24T06:39:16.288Z,97889.88
2022-12-24T06:41:46.767Z,97913.00
2022-12-24T06:44:15.802Z,97913.84
2022-12-24T06:46:45.138Z,97908.75
2022-12-24T06:49:14.211Z,97913.22
2022-12-24T06:51:43.396Z,97905.84
2022-12-24T06:54:12.430Z,97907.16
2022-12-24T06:56:41.603Z,97915.31
2022-12-24T06:59:12.056Z,97925.09
2022-12-24T07:01:41.438Z,97919.38
2022-12-24T07:04:16.204Z,97918.38
2022-12-24T07:06:48.865Z,97928.84
2022-12-24T07:09:17.957Z,97923.59
2022-12-24T07:11:47.031Z,97914.91
2022-12-24T07:14:17.524Z,97901.19
2022-12-24T07:16:46.699Z,97908.91
2022-12-24T07:19:16.489Z,97921.44
2022-12-24T07:21:45.821Z,97932.81
2022-12-24T07:24:14.884Z,97924.91
2022-12-24T07:26:44.089Z,97923.75
2022-12-24T07:29:13.228Z,97935.06
2022-12-24T07:31:43.835Z,97939.94
2022-12-24T07:34:12.934Z,97938.88
2022-12-24T07:36:41.963Z,97957.84
2022-12-24T07:39:11.189Z,97960.59
2022-12-24T07:41:41.925Z,97971.19
2022-12-24T07:44:13.813Z,97976.16
2022-12-24T07:46:45.103Z,97991.72
2022-12-24T07:49:14.291Z,97986.59
2022-12-24T07:51:43.476Z,97989.00
2022-12-24T07:54:12.675Z,97979.88
2022-12-24T07:56:41.776Z,97993.00
2022-12-24T07:59:13.582Z,97990.69
2022-12-24T08:04:26.559Z,97992.00
2022-12-24T08:06:55.627Z,97996.31
2022-12-24T08:09:26.584Z,97988.41
2022-12-24T08:11:55.674Z,97993.97
2022-12-24T08:14:25.044Z,97990.75
2022-12-24T08:16:54.146Z,98008.91
2022-12-24T08:19:23.519Z,98006.94
2022-12-24T08:21:56.029Z,98001.59
2022-12-24T08:24:25.903Z,98001.59
2022-12-24T08:26:54.961Z,98011.94
2022-12-24T08:29:24.525Z,98019.38
2022-12-24T08:31:53.887Z,98016.53
2022-12-24T08:34:22.995Z,98019.63
2022-12-24T08:36:53.454Z,98009.56
2022-12-24T08:39:22.783Z,98009.38
2022-12-24T08:41:52.009Z,98011.88
2022-12-24T08:44:21.539Z,98020.03
2022-12-24T08:46:50.658Z,98034.00
2022-12-24T08:49:19.836Z,98048.41
2022-12-24T08:51:49.179Z,98053.44
2022-12-24T08:54:19.856Z,98046.50
2022-12-24T08:56:48.961Z,98056.97
2022-12-24T08:59:21.962Z,98060.97
2022-12-24T09:01:51.194Z,98068.63
2022-12-24T09:04:20.700Z,98070.59
2022-12-24T09:06:49.775Z,98068.34
2022-12-24T09:09:20.333Z,98076.94
2022-12-24T09:11:49.397Z,98059.97
2022-12-24T09:14:19.221Z,98064.84
2022-12-24T09:16:48.444Z,98063.28
2022-12-24T09:19:17.752Z,98066.59
2022-12-24T09:21:46.910Z,98054.38
2022-12-24T09:24:16.087Z,98066.69
2022-12-24T09:26:55.513Z,98070.13
2022-12-24T09:29:26.894Z,98064.13
2022-12-24T09:31:57.964Z,98064.69
2022-12-24T09:34:30.611Z,98070.50
2022-12-24T09:37:02.519Z,98080.44
2022-12-24T09:39:31.843Z,98084.78
2022-12-24T09:42:18.619Z,98079.63
2022-12-24T09:44:52.791Z,98085.34
2022-12-24T09:47:29.227Z,98104.41
2022-12-24T09:50:02.222Z,98118.03
2022-12-24T09:52:36.369Z,98121.31
2022-12-24T09:55:17.467Z,98123.75
2022-12-24T09:57:51.727Z,98120.34
2022-12-24T10:00:25.217Z,98116.88
2022-12-24T10:02:54.489Z,98113.72
2022-12-24T10:05:35.586Z,98126.94
2022-12-24T10:08:19.746Z,98124.97
2022-12-24T10:10:54.123Z,98129.03
2022-12-24T10:13:49.994Z,98144.19
2022-12-24T10:16:26.782Z,98131.81
2022-12-24T10:19:04.416Z,98141.00
2022-12-24T10:21:45.501Z,98142.41
2022-12-24T10:24:20.146Z,98133.97
2022-12-24T10:26:57.381Z,98143.22
2022-12-24T10:29:31.893Z,98137.44
2022-12-24T10:32:17.378Z,98144.31
2022-12-24T10:34:52.707Z,98138.44
2022-12-24T10:37:26.384Z,98130.47
2022-12-24T10:39:56.718Z,98128.47
2022-12-24T10:42:36.264Z,98127.69
2022-12-24T10:45:09.461Z,98128.47
2022-12-24T10:47:41.368Z,98126.91
2022-12-24T10:50:20.023Z,98138.06
2022-12-24T10:52:56.705Z,98138.06
2022-12-24T10:55:28.257Z,98134.09
2022-12-24T10:58:06.110Z,98142.47
2022-12-24T11:00:39.516Z,98149.25
2022-12-24T11:03:26.174Z,98160.47
2022-12-24T11:06:21.243Z,98161.25
2022-12-24T11:08:50.399Z,98160.47
2022-12-24T11:11:23.561Z,98158.88
2022-12-24T11:13:57.789Z,98163.66
2022-12-24T11:16:33.427Z,98152.47
2022-12-24T11:19:05.148Z,98174.06
2022-12-24T11:21:39.236Z,98177.22
2022-12-24T11:24:25.309Z,98178.00
2022-12-24T11:27:18.459Z,98173.94
2022-12-24T11:29:48.496Z,98189.53
2022-12-24T11:32:22.777Z,98173.09
2022-12-24T11:34:52.328Z,98173.13
2022-12-24T11:37:25.296Z,98164.34
2022-12-24T11:39:57.348Z,98155.53
2022-12-24T11:42:33.966Z,98163.13
2022-12-24T11:45:07.278Z,98149.53
2022-12-24T11:47:43.603Z,98153.06
2022-12-24T11:50:26.771Z,98138.59
2022-12-24T11:53:17.259Z,98152.97
2022-12-24T11:55:52.677Z,98156.75
2022-12-24T11:58:29.966Z,98154.94
2022-12-24T12:01:15.432Z,98167.41
2022-12-24T12:03:50.626Z,98160.75
2022-12-24T12:06:30.118Z,98163.81
2022-12-24T12:09:06.791Z,98165.34
2022-12-24T12:11:36.885Z,98173.56
2022-12-24T12:14:06.509Z,98182.53
2022-12-24T12:17:05.218Z,98196.50
2022-12-24T12:19:47.232Z,98200.97
2022-12-24T12:22:27.364Z,98189.38
2022-12-24T12:24:59.979Z,98189.00
2022-12-24T12:27:36.974Z,98191.59
2022-12-24T12:30:15.561Z,98188.53
2022-12-24T12:32:52.851Z,98190.19
2022-12-24T12:35:27.481Z,98183.81
2022-12-24T12:38:00.884Z,98184.84
2022-12-24T12:41:03.507Z,98183.28
2022-12-24T12:44:22.607Z,98177.69
2022-12-24T12:47:11.129Z,98179.38
2022-12-24T12:49:51.052Z,98174.59
2022-12-24T12:52:42.193Z,98187.44
2022-12-24T12:55:34.681Z,98183.88
2022-12-24T12:58:13.651Z,98187.59
2022-12-24T13:00:46.305Z,98192.44
2022-12-24T13:03:47.260Z,98200.13
2022-12-24T13:06:52.500Z,98211.84
2022-12-24T13:09:46.641Z,98197.81
2022-12-24T13:12:41.142Z,98198.91
2022-12-24T13:15:37.717Z,98203.28
2022-12-24T13:18:30.463Z,98207.59
2022-12-24T13:20:59.767Z,98214.41
2022-12-24T13:23:29.539Z,98223.75
2022-12-24T13:26:00.708Z,98232.69
2022-12-24T13:28:38.797Z,98222.38
2022-12-24T13:31:29.903Z,98224.84
2022-12-24T13:34:04.454Z,98228.53
2022-12-24T13:37:04.329Z,98227.34
2022-12-24T13:40:17.293Z,98229.00
2022-12-24T13:43:10.091Z,98225.88
2022-12-24T13:45:51.010Z,98236.69
2022-12-24T13:48:30.433Z,98229.94
2022-12-24T13:51:03.062Z,98231.53
2022-12-24T13:53:35.266Z,98233.94
2022-12-24T13:56:09.985Z,98242.78
2022-12-24T13:58:43.978Z,98249.97
2022-12-24T14:01:16.227Z,98255.56
2022-12-24T14:03:49.073Z,98253.19
2022-12-24T14:06:26.111Z,98258.78
2022-12-24T14:08:58.344Z,98266.34
2022-12-24T14:11:34.532Z,98273.16
2022-12-24T14:14:29.871Z,98292.75
2022-12-24T14:17:01.545Z,98291.50
2022-12-24T14:19:40.219Z,98298.63
2022-12-24T14:22:30.116Z,98289.75
2022-12-24T14:25:02.687Z,98296.25
2022-12-24T14:27:40.614Z,98302.22
2022-12-24T14:30:22.883Z,98295.53
2022-12-24T14:32:54.140Z,98302.69
2022-12-24T14:35:26.948Z,98312.22
2022-12-24T14:38:02.746Z,98320.50
2022-12-24T14:40:39.936Z,98322.38
2022-12-24T14:43:21.601Z,98318.22
2022-12-24T14:46:01.435Z,98328.00
2022-12-24T14:48:40.344Z,98328.25
2022-12-24T14:51:18.231Z,98327.69
2022-12-24T14:54:27.950Z,98335.94
2022-12-24T14:57:26.323Z,98343.03
2022-12-24T14:59:57.881Z,98347.59
2022-12-24T15:02:47.637Z,98345.97
2022-12-24T15:05:20.655Z,98343.91
2022-12-24T15:07:57.612Z,98345.22
2022-12-24T15:10:33.969Z,98358.88
2022-12-24T15:13:06.895Z,98363.41
2022-12-24T15:15:36.687Z,98368.22
2022-12-24T15:18:07.479Z,98374.63
2022-12-24T15:20:36.612Z,98373.66
2022-12-24T15:23:06.746Z,98365.59
2022-12-24T15:25:35.827Z,98378.47
2022-12-24T15:28:15.430Z,98368.88
2022-12-24T15:30:44.853Z,98381.25
2022-12-24T15:33:15.509Z,98389.28
2022-12-24T15:35:53.728Z,98387.25
2022-12-24T15:38:34.280Z,98388.22
2022-12-24T15:41:06.484Z,98386.38
2022-12-24T15:43:41.445Z,98388.66
2022-12-24T15:46:10.650Z,98397.00
2022-12-24T15:48:46.402Z,98389.47
2022-12-24T15:51:25.221Z,98402.91
2022-12-24T15:54:02.426Z,98407.84
2022-12-24T15:56:36.856Z,98426.63
2022-12-24T15:59:32.042Z,98423.53
2022-12-24T16:02:48.895Z,98425.19
2022-12-24T16:05:35.809Z,98424.16
2022-12-24T16:08:25.286Z,98436.44
2022-12-24T16:11:09.178Z,98426.50
2022-12-24T16:13:41.823Z,98428.97
2022-12-24T16:16:14.393Z,98436.88
2022-12-24T16:18:52.908Z,98435.50
2022-12-24T16:21:29.502Z,98428.97
2022-12-24T16:24:06.379Z,98435.13
2022-12-24T16:26:36.256Z,98434.53
2022-12-24T16:29:05.395Z,98430.91
2022-12-24T16:31:38.014Z,98436.75
2022-12-24T16:34:07.562Z,98442.94
2022-12-24T16:36:38.004Z,98450.78
2022-12-24T16:39:20.958Z,98461.00
2022-12-24T16:42:07.846Z,98461.78
2022-12-24T16:44:37.227Z,98457.59
2022-12-24T16:47:08.663Z,98464.91
2022-12-24T16:49:39.448Z,98472.94
2022-12-24T16:52:18.256Z,98469.75
2022-12-24T16:54:47.302Z,98465.38
2022-12-24T16:57:16.644Z,98455.88
2022-12-24T16:59:45.938Z,98459.66
2022-12-24T17:02:18.406Z,98458.22
2022-12-24T17:04:48.286Z,98458.47
2022-12-24T17:07:21.592Z,98464.91
2022-12-24T17:09:50.676Z,98464.25
2022-12-24T17:12:21.407Z,98463.63
2022-12-24T17:14:50.760Z,98469.88
2022-12-24T17:17:25.805Z,98472.53
2022-12-24T17:19:56.006Z,98472.13
2022-12-24T17:22:27.822Z,98472.41
2022-12-24T17:24:57.692Z,98475.72
2022-12-24T17:27:26.783Z,98473.75
2022-12-24T17:29:56.012Z,98481.28
2022-12-24T17:32:27.439Z,98473.22
2022-12-24T17:34:56.855Z,98478.59
2022-12-24T17:37:27.517Z,98484.38
2022-12-24T17:40:00.203Z,98484.22
2022-12-24T17:42:29.411Z,98483.31
2022-12-24T17:44:58.524Z,98483.97
2022-12-24T17:47:27.557Z,98488.41
2022-12-24T17:49:56.753Z,98488.22
2022-12-24T17:52:27.199Z,98497.19
2022-12-24T17:54:56.335Z,98508.47
2022-12-24T17:57:25.412Z,98499.72
2022-12-24T17:59:54.563Z,98505.25
2022-12-24T18:02:23.780Z,98511.69
2022-12-24T18:04:53.094Z,98514.91
2022-12-24T18:07:22.240Z,98527.81
2022-12-24T18:09:52.883Z,98509.91
2022-12-24T18:12:22.024Z,98517.50
2022-12-24T18:14:51.188Z,98518.94
2022-12-24T18:17:20.463Z,98526.47
2022-12-24T18:19:49.980Z,98523.69
2022-12-24T18:22:19.159Z,98528.91
2022-12-24T18:24:48.403Z,98535.88
2022-12-24T18:27:19.096Z,98530.31
2022-12-24T18:29:48.319Z,98529.59
2022-12-24T18:32:18.092Z,98533.28
2022-12-24T18:34:47.320Z,98540.34
2022-12-24T18:37:16.489Z,98519.66
2022-12-24T18:39:45.778Z,98531.84
2022-12-24T18:42:15.619Z,98538.72
2022-12-24T18:44:46.864Z,98534.44
2022-12-24T18:47:16.340Z,98554.94
2022-12-24T18:49:45.480Z,98558.66
2022-12-24T18:52:22.451Z,98559.09
2022-12-24T18:54:52.173Z,98553.72
2022-12-24T18:57:21.354Z,98559.69
2022-12-24T18:59:53.184Z,98557.59
2022-12-24T19:02:22.321Z,98560.13
2022-12-24T19:04:51.879Z,98569.88
2022-12-24T19:07:20.984Z,98573.19
2022-12-24T19:09:50.291Z,98574.00
2022-12-24T19:12:22.502Z,98578.38
2022-12-24T19:14:53.060Z,98581.41
2022-12-24T19:17:22.304Z,98583.47
2022-12-24T19:19:52.552Z,98580.72
2022-12-24T19:22:21.734Z,98595.03
2022-12-24T19:24:51.876Z,98589.19
2022-12-24T19:27:21.246Z,98590.75
2022-12-24T19:29:50.400Z,98592.34
2022-12-24T19:32:21.075Z,98599.56
2022-12-24T19:34:50.207Z,98604.97
2022-12-24T19:37:19.328Z,98608.34
2022-12-24T19:39:48.759Z,98597.69
2022-12-24T19:42:18.106Z,98606.88
2022-12-24T19:44:47.178Z,98618.19
2022-12-24T19:47:16.511Z,98609.81
2022-12-24T19:49:47.709Z,98609.34
2022-12-24T19:52:16.963Z,98611.84
2022-12-24T19:54:46.192Z,98615.63
2022-12-24T19:57:15.277Z,98613.75
2022-12-24T19:59:45.387Z,98615.44
2022-12-24T20:02:14.810Z,98626.81
2022-12-24T20:04:44.319Z,98623.00
2022-12-24T20:07:14.896Z,98625.47
2022-12-24T20:09:44.014Z,98628.44
2022-12-24T20:12:13.181Z,98628.94
2022-12-24T20:14:42.506Z,98622.25
2022-12-24T20:17:12.184Z,98637.94
2022-12-24T20:19:41.538Z,98634.25
2022-12-24T20:22:10.951Z,98637.94
2022-12-24T20:24:41.800Z,98632.38
2022-12-24T20:27:11.717Z,98638.84
2022-12-24T20:29:40.911Z,98623.16
2022-12-24T20:32:10.049Z,98634.53
2022-12-24T20:34:39.301Z,98624.16
2022-12-24T20:37:08.848Z,98623.09
2022-12-24T20:39:38.103Z,98627.53
2022-12-24T20:42:08.791Z,98633.28
2022-12-24T20:44:38.337Z,98632.88
2022-12-24T20:47:07.486Z,98638.63
2022-12-24T20:49:36.554Z,98634.91
2022-12-24T20:52:06.238Z,98640.06
2022-12-24T20:54:35.543Z,98642.81
2022-12-24T20:57:05.148Z,98641.84
2022-12-24T20:59:38.815Z,98651.78
2022-12-24T21:02:09.088Z,98653.66
2022-12-24T21:04:40.063Z,98658.31
2022-12-24T21:07:09.730Z,98663.69
2022-12-24T21:09:39.515Z,98653.47
2022-12-24T21:12:29.388Z,98657.09
2022-12-24T21:15:00.329Z,98653.16
2022-12-24T21:17:30.330Z,98646.72
2022-12-24T21:20:00.590Z,98651.97
2022-12-24T21:22:29.823Z,98653.41
2022-12-24T21:24:58.891Z,98661.00
2022-12-24T21:27:30.228Z,98659.22
2022-12-24T21:30:03.353Z,98662.19
2022-12-24T21:32:32.855Z,98661.75
2022-12-24T21:35:02.086Z,98668.56
2022-12-24T21:37:31.314Z,98670.00
2022-12-24T21:40:00.745Z,98658.19
2022-12-24T21:42:32.609Z,98666.50
2022-12-24T21:45:04.741Z,98670.63
2022-12-24T21:47:35.241Z,98668.81
2022-12-24T21:50:25.624Z,98672.44
2022-12-24T21:53:19.703Z,98671.13
2022-12-24T21:55:48.116Z,98671.59
2022-12-24T21:58:18.619Z,98669.56
2022-12-24T22:00:49.107Z,98668.56
2022-12-24T22:03:18.255Z,98669.84
2022-12-24T22:05:47.534Z,98670.47
2022-12-24T22:08:33.999Z,98676.03
2022-12-24T22:11:22.651Z,98667.59
2022-12-24T22:13:51.767Z,98677.72
2022-12-24T22:16:22.301Z,98665.97
2022-12-24T22:18:52.155Z,98656.56
2022-12-24T22:21:21.607Z,98650.47
2022-12-24T22:23:50.947Z,98653.09
2022-12-24T22:26:20.353Z,98654.97
2022-12-24T22:28:49.704Z,98649.69
2022-12-24T22:31:19.950Z,98654.97
2022-12-24T22:33:50.721Z,98640.06
2022-12-24T22:36:20.450Z,98643.50
2022-12-24T22:38:49.584Z,98646.19
2022-12-24T22:41:19.128Z,98639.28
2022-12-24T22:43:50.158Z,98642.78
2022-12-24T22:46:19.477Z,98654.44
2022-12-24T22:48:50.144Z,98639.75
2022-12-24T22:51:22.658Z,98649.94
2022-12-24T22:53:51.768Z,98650.66
2022-12-24T22:56:23.678Z,98654.06
2022-12-24T22:58:55.348Z,98650.75
2022-12-24T23:01:34.638Z,98656.22
2022-12-24T23:04:08.197Z,98657.81
2022-12-24T23:06:37.501Z,98665.19
2022-12-24T23:09:09.234Z,98671.38
2022-12-24T23:11:38.455Z,98679.41
2022-12-24T23:14:25.053Z,98681.66
2022-12-24T23:16:54.651Z,98674.03
2022-12-24T23:19:25.195Z,98680.03
2022-12-24T23:21:54.368Z,98689.47
2022-12-24T23:24:23.745Z,98692.69
2022-12-24T23:26:52.944Z,98693.31
2022-12-24T23:29:22.488Z,98689.91
2022-12-24T23:31:51.580Z,98693.84
2022-12-24T23:34:20.723Z,98693.16
2022-12-24T23:36:51.254Z,98687.75
2022-12-24T23:39:20.476Z,98678.97
2022-12-24T23:41:49.732Z,98681.84
2022-12-24T23:44:19.325Z,98670.72
2022-12-24T23:46:48.458Z,98681.84
2022-12-24T23:49:17.750Z,98688.66
2022-12-24T23:51:46.882Z,98694.47
2022-12-24T23:54:17.546Z,98699.94
2022-12-24T23:56:47.035Z,98701.63
2022-12-24T23:59:16.120Z,98696.44
